KMIE/MIE METAR and TAF weather

Enter ICAO airport designator
Station Type Date Time Source
KMIE METAR 2021/10/24 20:53 UTC NOAA

KMIE 242053Z 15007KT 10SM -RA FEW018 BKN026 OVC060 15/13 A2981 RMK AO2 RAE02B18 SLP091 P0006 60028 T01500128 58030


Station Type Date Time Source
KMIE Decoded METAR 2021/10/24 20:53 UTC NOAA

MUNCIE DELAWARE JOHNSON, IN, United States (KMIE) 40-14N 85-24W 285M
Oct 24, 2021 - 04:53 PM EDT / 2021.10.24 2053 UTC
Wind: from the SSE (150 degrees) at 8 MPH (7 KT):0
Visibility: 10 mile(s):0
Sky conditions: overcast
Weather: light rain
Precipitation last hour: 0.06 inches
Temperature: 59.0 F (15.0 C)
Dew Point: 55.0 F (12.8 C)
Relative Humidity: 86%
Pressure (altimeter): 29.81 in. Hg (1009 hPa)
Pressure tendency: 0.09 inches (3.0 hPa) lower than three hours ago
ob: KMIE 242053Z 15007KT 10SM -RA FEW018 BKN026 OVC060 15/13 A2981 RMK AO2 RAE02B18 SLP091 P0006 60028 T01500128 58030
cycle: 21

Station Type Date Time Source
KMIE TAF UTC NOAA

Error!

Example: see airport list